Flight Track Log - Related Links

Times and Time Zones

All times are in EDT time to prevent confusion due to time zone crossing. See the GJS3706 flight status page for this flight to view local times or setup timezone preferences in your user account.

Time Position Orientation Groundspeed Altitude Reporting Facility
EDT Latitude Longitude Course Direction KTS MPH feet Rate Location/Type
Wed 07:02:51 AM 43.6681 -70.5142 255° West 261 300 5,000  Level Boston Center
Wed 07:03:51 AM 43.6886 -70.6311 284° West 280 322 7,900 2,650 Climbing Boston Center
Wed 07:04:51 AM 43.7089 -70.7283 286° West 286 329 10,300 2,000 Climbing Boston Center
Wed 07:05:51 AM 43.6942 -70.8578 261° West 302 348 11,900 1,700 Climbing Boston Center
Wed 07:06:51 AM 43.6728 -70.9733 256° West 333 383 13,700 1,900 Climbing Boston Center
Wed 07:07:00 AM 43.6981 -70.8662 243° Southwest  Level FlightAware Approximate
Wed 07:07:51 AM 43.6453 -71.1231 256° West 359 413 15,700  Level Boston Center
Wed 07:08:00 AM 43.6565 -71.0011 255° West  Level FlightAware Approximate
Wed 07:08:51 AM 43.6197 -71.2614 256° West 369 425 17,800  Level Boston Center
Wed 07:09:51 AM 43.5942 -71.4053 256° West 379 436 19,000 1,250 Climbing Boston Center
Wed 07:10:51 AM 43.5700 -71.5347 256° West 391 450 20,300 1,550 Climbing Boston Center
Wed 07:11:51 AM 43.5419 -71.6897 256° West 404 465 22,100 1,600 Climbing Boston Center
Wed 07:12:51 AM 43.5117 -71.8389 254° West 404 465 23,500 1,350 Climbing Boston Center
Wed 07:13:51 AM 43.4833 -71.9908 256° West 410 472 24,800 1,300 Climbing Boston Center
Wed 07:14:51 AM 43.4544 -72.1456 256° West 416 479 26,100 1,200 Climbing Boston Center
Wed 07:15:51 AM 43.4236 -72.3058 255° West 416 479 27,200 1,000 Climbing Boston Center
Wed 07:16:51 AM 43.3944 -72.4658 256° West 421 484 28,100 950 Climbing Boston Center
Wed 07:17:51 AM 43.3819 -72.6344 264° West 439 505 29,100 1,050 Climbing Boston Center
Wed 07:18:51 AM 43.3753 -72.8028 267° West 445 512 30,200 1,100 Climbing Boston Center
Wed 07:19:51 AM 43.3683 -72.9714 267° West 445 512 31,300 1,100 Climbing Boston Center
Wed 07:20:51 AM 43.3589 -73.1425 266° West 445 512 32,400 1,000 Climbing Boston Center
Wed 07:21:51 AM 43.3494 -73.3108 266° West 445 512 33,300 900 Climbing Boston Center
Wed 07:22:51 AM 43.3356 -73.4933 264° West 445 512 34,200 850 Climbing Boston Center
Wed 07:23:51 AM 43.3256 -73.6589 265° West 445 512 35,000 700 Climbing Boston Center
Wed 07:24:51 AM 43.3175 -73.8156 266° West 445 512 35,600 600 Climbing Boston Center
Wed 07:25:51 AM 43.3089 -73.9867 266° West 445 512 36,200 600 Climbing Boston Center
Wed 07:26:51 AM 43.2983 -74.1517 265° West 445 512 36,800 600 Climbing Boston Center
Wed 07:27:51 AM 43.2894 -74.3256 266° West 445 512 37,400 550 Climbing Boston Center
Wed 07:28:51 AM 43.2781 -74.4933 265° West 445 512 37,900 300 Climbing Boston Center
Wed 07:29:51 AM 43.2708 -74.6642 267° West 450 518 38,000 50 Climbing Boston Center
Wed 07:30:51 AM 43.2672 -74.8325 268° West 450 518 38,000  Level Boston Center
Wed 07:31:51 AM 43.2656 -75.0036 269° West 450 518 38,000  Level Boston Center
Wed 07:32:51 AM 43.2614 -75.1886 268° West 450 518 38,000  Level Boston Center
Wed 07:33:51 AM 43.2636 -75.3483 271° West 455 524 38,000  Level Boston Center
Wed 07:34:51 AM 43.2608 -75.5367 269° West 461 531 38,000  Level Boston Center
Wed 07:35:51 AM 43.2581 -75.7075 269° West 456 525 38,000  Level Boston Center
Wed 07:36:51 AM 43.2583 -75.8417 270° West 456 525 38,000  Level Boston Center
Wed 07:38:45 AM 43.2500 -76.1875 268° West 454 522 38,000  Level Cleveland Center
Wed 07:39:45 AM 43.2461 -76.3589 268° West 454 522 38,000  Level Cleveland Center
Wed 07:40:46 AM 43.2417 -76.5303 268° West 454 522 38,000  Level Cleveland Center
Wed 07:41:45 AM 43.2372 -76.7072 268° West 464 534 38,000  Level Cleveland Center
Wed 07:42:45 AM 43.2325 -76.8817 268° West 464 534 38,000  Level Cleveland Center
Wed 07:43:45 AM 43.2281 -77.0728 268° West 464 534 38,000  Level Cleveland Center
Wed 07:44:45 AM 43.2208 -77.2469 267° West 464 534 38,000  Level Cleveland Center
Wed 07:45:45 AM 43.2175 -77.4239 269° West 464 534 38,000  Level Cleveland Center
Wed 07:46:45 AM 43.2117 -77.6036 268° West 469 540 38,000  Level Cleveland Center
Wed 07:47:45 AM 43.2058 -77.7806 267° West 469 540 38,000  Level Cleveland Center
Wed 07:48:45 AM 43.1994 -77.9575 267° West 469 540 38,000  Level Cleveland Center
Wed 07:49:45 AM 43.1931 -78.1372 267° West 469 540 38,000  Level Cleveland Center
Wed 07:50:45 AM 43.1842 -78.3139 266° West 469 540 38,000  Level Cleveland Center
Wed 07:51:45 AM 43.1792 -78.4936 268° West 474 545 38,000  Level Cleveland Center
Wed 07:52:45 AM 43.1717 -78.6703 267° West 474 545 38,000  Level Cleveland Center
Wed 07:53:45 AM 43.1642 -78.8469 267° West 474 545 38,000  Level Cleveland Center
Wed 07:54:45 AM 43.1542 -79.0239 266° West 474 545 38,000  Level Cleveland Center
Wed 07:55:23 AM 43.1333 -79.1000 249° West 470 541 38,000  Level Toronto Center
Wed 07:56:23 AM 43.1333 -79.2833 270° West 470 541 38,000  Level Toronto Center
Wed 07:57:23 AM 43.1167 -79.4667 263° West 470 541 38,000  Level Toronto Center
Wed 07:58:23 AM 43.1167 -79.6333 270° West 470 541 38,000  Level Toronto Center
Wed 07:59:23 AM 43.1000 -79.8167 263° West 460 529 38,000  Level Toronto Center
Wed 08:00:23 AM 43.1000 -80.0000 270° West 460 529 38,000  Level Toronto Center
Wed 08:01:23 AM 43.0833 -80.1833 263° West 460 529 38,000  Level Toronto Center
Wed 08:02:23 AM 43.0833 -80.3333 270° West 460 529 38,000  Level Toronto Center
Wed 08:03:23 AM 43.0833 -80.5167 270° West 460 529 38,000  Level Toronto Center
Wed 08:04:23 AM 43.1500 -80.6667 301° West 460 529 38,000  Level Toronto Center
Wed 08:05:23 AM 43.2333 -80.8000 311° West 460 529 38,000  Level Toronto Center
Wed 08:06:23 AM 43.2833 -80.9333 297° West 460 529 38,000  Level Toronto Center
Wed 08:07:23 AM 43.3000 -81.1167 277° West 450 518 38,000  Level Toronto Center
Wed 08:08:23 AM 43.2833 -81.2833 262° West 450 518 38,000  Level Toronto Center
Wed 08:09:23 AM 43.2667 -81.4667 263° West 450 518 38,000  Level Toronto Center
Wed 08:10:23 AM 43.2500 -81.6167 261° West 450 518 38,000  Level Toronto Center
Wed 08:11:23 AM 43.2333 -81.7833 262° West 460 529 38,000  Level Toronto Center
Wed 08:12:23 AM 43.2000 -81.9667 256° West 450 518 38,000  Level Toronto Center
Wed 08:13:23 AM 43.1833 -82.1333 262° West 450 518 38,000  Level Toronto Center
Wed 08:14:23 AM 43.1667 -82.3000 262° West 450 518 38,000  Level Toronto Center
Wed 08:15:23 AM 43.1333 -82.4667 255° West 450 518 38,000 -231 Level Toronto Center
Wed 08:16:33 AM 43.1206 -82.6794 265° West 456 525 37,500 -831 Descending Cleveland Center
Wed 08:17:33 AM 43.1217 -82.8444 271° West 449 517 36,200 -1,350 Descending Cleveland Center
Wed 08:18:33 AM 43.1392 -83.0100 278° West 439 505 34,800 -1,500 Descending Cleveland Center
Wed 08:19:33 AM 43.1561 -83.1844 278° West 452 520 33,200 -1,400 Descending Cleveland Center
Wed 08:20:33 AM 43.1772 -83.3506 280° West 452 520 32,000 -600 Descending Cleveland Center
Wed 08:21:33 AM 43.1814 -83.5214 272° West 447 514 32,000  Level Cleveland Center
Wed 08:22:33 AM 43.1417 -83.6817 251° West 434 499 32,000  Level Cleveland Center
Wed 08:23:33 AM 43.0933 -83.8472 248° West 451 519 32,000  Level Cleveland Center
Wed 08:24:33 AM 43.0492 -84.0097 250° West 458 527 32,000  Level Cleveland Center
Wed 08:25:33 AM 43.0025 -84.1689 248° West 458 527 32,000  Level Cleveland Center
Wed 08:27:23 AM 42.9167 -84.4667 249° West 450 518 32,000  Level Toronto Center
Wed 08:27:52 AM 42.9006 -84.5208 248° West 454 522 32,000  Level Chicago Center
Wed 08:28:54 AM 42.8733 -84.6881 258° West 455 524 32,000  Level Chicago Center
Wed 08:29:56 AM 42.8556 -84.8589 262° West 456 525 32,000  Level Chicago Center
Wed 08:30:58 AM 42.8375 -85.0283 262° West 455 524 32,000  Level Chicago Center
Wed 08:31:59 AM 42.8153 -85.2317 262° West 454 522 32,000 -634 Level Chicago Center
Wed 08:33:01 AM 42.7964 -85.4039 262° West 459 528 30,700 -1,645 Descending Chicago Center
Wed 08:34:03 AM 42.7722 -85.5783 259° West 467 537 28,600 -2,032 Descending Chicago Center
Wed 08:35:05 AM 42.7417 -85.7436 256° West 452 520 26,500 -2,032 Descending Chicago Center
Wed 08:36:07 AM 42.7133 -85.9011 256° West 434 499 24,400 -2,081 Descending Chicago Center
Wed 08:37:09 AM 42.6853 -86.0547 256° West 420 483 22,200 -1,887 Descending Chicago Center
Wed 08:38:11 AM 42.6572 -86.2061 256° West 414 476 20,500 -1,161 Descending Chicago Center
Wed 08:39:13 AM 42.6294 -86.3506 255° West 399 459 19,800 -1,403 Descending Chicago Center
Wed 08:40:15 AM 42.5958 -86.5214 255° West 390 449 17,600 -1,984 Descending Chicago Center
Wed 08:41:17 AM 42.5706 -86.6608 256° West 381 438 15,700 -1,839 Descending Chicago Center
Wed 08:42:19 AM 42.5428 -86.7961 254° West 375 432 13,800 -1,694 Descending Chicago Center
Wed 08:43:21 AM 42.5078 -86.9228 249° West 363 418 12,200 -1,500 Descending Chicago Center
Wed 08:44:23 AM 42.4739 -87.0483 250° West 357 411 10,700 -1,065 Descending Chicago Center
Wed 08:45:25 AM 42.4400 -87.1603 248° West 327 376 10,000 -339 Descending Chicago Center
Wed 08:46:27 AM 42.4089 -87.2758 250° West 327 376 10,000  Level Chicago Center
Wed 08:47:28 AM 42.3744 -87.3981 249° West 323 372 10,000  Level Chicago Center
Wed 08:48:30 AM 42.3436 -87.5114 250° West 324 373 10,000  Level Chicago Center
Wed 08:49:32 AM 42.2658 -87.6119 224° Southwest 331 381 10,000  Level Chicago Center
Wed 08:50:34 AM 42.1936 -87.6867 217° Southwest 329 379 10,000  Level Chicago Center
Wed 08:51:36 AM 42.1239 -87.7603 218° Southwest 320 368 10,000 -774 Level Chicago Center
Wed 08:52:38 AM 42.0917 -87.8469 243° Southwest 279 321 8,400 -1,370 Descending Chicago Center
Wed 08:53:43 AM 42.0833 -87.9500 264° West 235 270 7,100 -641 Descending Chicago TRACON
Wed 08:54:49 AM 42.0833 -88.0500 270° West 234 269 7,000 -524 Descending Chicago TRACON
Wed 08:55:49 AM 42.0833 -88.1333 270° West 231 266 6,000 -1,000 Descending Chicago TRACON
Wed 08:56:49 AM 42.0833 -88.2167 270° West 221 254 5,000 -508 Descending Chicago TRACON
Wed 08:57:47 AM 42.0889 -88.2861 276° West 213 245 5,000  Level Chicago Center
Wed 08:58:49 AM 42.0478 -88.3061 200° South 192 221 5,000  Level Chicago Center
Wed 08:59:51 AM 41.9967 -88.2714 153° Southeast 183 211 5,000  Level Chicago Center
Wed 09:00:53 AM 41.9706 -88.2103 120° Southeast 189 217 5,000 -532 Level Chicago Center
Wed 09:01:55 AM 41.9672 -88.1406 94° East 187 215 3,900 -1,179 Descending Chicago Center
Wed 09:02:50 AM 41.9667 -88.0667 91° East 182 209 2,700 -1,041 Descending Chicago TRACON
Wed 09:03:56 AM 41.9667 -88.0000 90° East 150 173 1,800 -762 Descending Chicago TRACON
Wed 09:04:56 AM 41.9667 -87.9500 90° East 142 163 1,100 -700 Descending Chicago TRACON

Login

Don't have an account? Register now (free) for customized features, flight alerts, and more!